Time;durP1;ratioP1;P1;durP2;ratioP2;P2;SDS_P1;SDS_P2;PMS_P1;PMS_P2;Temp;Humidity;BMP_temperature;BMP_pressure;BME280_temperature;BME280_humidity;BME280_pressure;Samples;Min_cycle;Max_cycle;Signal;HPM_P1;HPM_P2
2021/06/14 00:00:24;;;;;;;17.02;9.25;;;;;;;;;;5092670;28;20027;-49
2021/06/14 00:02:50;;;;;;;13.05;7.30;;;;;;;;;;5093660;28;20043;-48
2021/06/14 00:05:22;;;;;;;10.07;5.00;;;;;;;;;;5093333;28;20499;-46
2021/06/14 00:07:48;;;;;;;;;;;;;;;;;;5093964;28;20024;-45
2021/06/14 00:10:14;;;;;;;10.80;5.88;;;;;;;;;;5093522;28;19911;-47
2021/06/14 00:12:41;;;;;;;16.45;8.07;;;;;;;;;;5093356;28;20056;-48
2021/06/14 00:15:08;;;;;;;24.27;15.95;;;;;;;;;;5091974;28;20040;-48
2021/06/14 00:17:36;;;;;;;26.30;17.15;;;;;;;;;;5093338;28;20103;-49
2021/06/14 00:20:03;;;;;;;26.23;15.70;;;;;;;;;;5093368;28;20392;-48
2021/06/14 00:22:29;;;;;;;46.70;28.52;;;;;;;;;;5093314;28;20085;-48
2021/06/14 00:24:55;;;;;;;25.27;16.13;;;;;;;;;;5093296;28;20493;-48
2021/06/14 00:27:21;;;;;;;21.10;12.45;;;;;;;;;;5093342;28;20099;-48
2021/06/14 00:29:47;;;;;;;20.90;12.32;;;;;;;;;;5093212;28;20538;-47
2021/06/14 00:32:13;;;;;;;18.52;11.52;;;;;;;;;;5093190;28;20499;-49
2021/06/14 00:34:39;;;;;;;44.03;27.90;;;;;;;;;;5093163;28;20043;-47
2021/06/14 00:37:06;;;;;;;26.65;13.93;;;;;;;;;;5093349;28;20029;-47
2021/06/14 00:39:32;;;;;;;8.88;5.60;;;;;;;;;;5093244;28;20048;-47
2021/06/14 00:41:58;;;;;;;17.20;8.27;;;;;;;;;;5093087;28;20103;-46
2021/06/14 00:44:24;;;;;;;21.33;11.93;;;;;;;;;;5092943;28;20064;-48
2021/06/14 00:46:50;;;;;;;17.75;9.20;;;;;;;;;;5093184;28;20074;-48
2021/06/14 00:49:16;;;;;;;14.18;8.68;;;;;;;;;;5093198;28;20047;-48
2021/06/14 00:51:42;;;;;;;21.90;12.10;;;;;;;;;;5093041;28;20032;-49
2021/06/14 00:54:08;;;;;;;8.45;5.35;;;;;;;;;;5093018;28;20036;-48
2021/06/14 00:56:34;;;;;;;11.43;5.88;;;;;;;;;;5092978;28;20050;-50
2021/06/14 00:59:01;;;;;;;5.95;3.22;;;;;;;;;;5092947;28;20395;-48
2021/06/14 01:01:27;;;;;;;6.72;3.25;;;;;;;;;;5093002;28;20464;-48
2021/06/14 01:03:53;;;;;;;11.48;5.35;;;;;;;;;;5092875;28;20035;-49
2021/06/14 01:06:19;;;;;;;35.30;18.38;;;;;;;;;;5092787;28;20111;-49
2021/06/14 01:08:49;;;;;;;26.30;13.48;;;;;;;;;;5095169;28;20020;-47
2021/06/14 01:11:47;;;;;;;27.60;14.48;;;;;;;;;;5096869;28;20031;-49
2021/06/14 01:14:31;;;;;;;22.48;9.63;;;;;;;;;;5094209;28;20531;-49
2021/06/14 01:17:20;;;;;;;22.92;12.07;;;;;;;;;;5094614;28;20043;-48
2021/06/14 01:20:09;;;;;;;33.50;19.10;;;;;;;;;;5091741;28;20045;-48
2021/06/14 01:22:48;;;;;;;17.98;10.45;;;;;;;;;;5074136;28;20037;-48
2021/06/14 01:25:20;;;;;;;16.98;10.30;;;;;;;;;;5073913;28;20570;-48
2021/06/14 01:27:50;;;;;;;25.67;14.30;;;;;;;;;;5074074;28;20043;-46
2021/06/14 01:30:18;;;;;;;32.67;16.33;;;;;;;;;;5073975;28;20396;-48
2021/06/14 01:32:44;;;;;;;36.17;20.67;;;;;;;;;;5073891;28;20024;-48
2021/06/14 01:35:12;;;;;;;27.90;16.77;;;;;;;;;;5073882;28;20024;-50
2021/06/14 01:37:43;;;;;;;18.35;9.88;;;;;;;;;;5073861;28;20036;-49
2021/06/14 01:40:11;;;;;;;18.65;11.48;;;;;;;;;;5073811;28;20480;-48
2021/06/14 01:42:38;;;;;;;15.30;8.52;;;;;;;;;;5073654;28;20233;-48
2021/06/14 01:45:05;;;;;;;18.25;9.07;;;;;;;;;;5073696;28;20094;-47
2021/06/14 01:47:31;;;;;;;11.80;7.40;;;;;;;;;;5073635;28;20548;-46
2021/06/14 01:49:58;;;;;;;5.47;3.83;;;;;;;;;;5062118;28;20549;-48
2021/06/14 01:52:24;;;;;;;11.98;6.95;;;;;;;;;;5053598;28;20108;-48
2021/06/14 01:54:53;;;;;;;9.98;4.05;;;;;;;;;;5053496;28;20037;-48
2021/06/14 01:57:19;;;;;;;4.75;2.75;;;;;;;;;;5037198;28;20030;-49
2021/06/14 01:59:48;;;;;;;6.78;3.83;;;;;;;;;;5077917;28;20036;-48
2021/06/14 02:02:16;;;;;;;6.72;3.38;;;;;;;;;;5095658;28;20033;-47
2021/06/14 02:04:46;;;;;;;6.93;3.42;;;;;;;;;;5095691;28;20063;-48
2021/06/14 02:07:12;;;;;;;6.40;2.90;;;;;;;;;;5095578;28;20039;-46
2021/06/14 02:09:40;;;;;;;6.70;2.58;;;;;;;;;;5095744;28;20024;-48
2021/06/14 02:12:08;;;;;;;3.85;2.10;;;;;;;;;;5095758;28;20020;-47
2021/06/14 02:14:35;;;;;;;3.67;2.25;;;;;;;;;;5095313;28;20052;-48
2021/06/14 02:17:03;;;;;;;4.93;2.75;;;;;;;;;;5095758;28;20028;-48
2021/06/14 02:19:30;;;;;;;4.80;2.15;;;;;;;;;;5095295;28;20024;-48
2021/06/14 02:21:56;;;;;;;4.57;2.00;;;;;;;;;;5095528;28;20058;-47
2021/06/14 02:24:22;;;;;;;2.95;2.00;;;;;;;;;;5095645;28;20036;-48
2021/06/14 02:26:48;;;;;;;3.42;1.70;;;;;;;;;;5095698;28;20035;-48
2021/06/14 02:29:15;;;;;;;5.00;2.00;;;;;;;;;;5095361;28;20028;-47
2021/06/14 02:31:41;;;;;;;4.22;2.05;;;;;;;;;;5095322;28;20032;-49
2021/06/14 02:34:07;;;;;;;3.53;1.90;;;;;;;;;;5095414;28;20503;-48
2021/06/14 02:36:34;;;;;;;4.30;1.67;;;;;;;;;;5095157;28;20035;-49
2021/06/14 02:39:02;;;;;;;3.67;1.90;;;;;;;;;;5095233;28;20032;-48
2021/06/14 02:41:29;;;;;;;6.15;2.30;;;;;;;;;;5095183;28;20016;-48
2021/06/14 02:43:55;;;;;;;4.00;2.10;;;;;;;;;;5094934;28;20127;-48
2021/06/14 02:46:24;;;;;;;3.13;1.90;;;;;;;;;;5094966;28;20472;-47
2021/06/14 02:48:51;;;;;;;3.70;2.20;;;;;;;;;;5095151;28;20036;-48
2021/06/14 02:51:18;;;;;;;2.63;1.88;;;;;;;;;;5094976;28;20024;-49
2021/06/14 02:54:03;;;;;;;3.40;2.10;;;;;;;;;;5095002;28;20074;-46
2021/06/14 02:56:29;;;;;;;5.70;2.10;;;;;;;;;;5094733;28;20035;-48
2021/06/14 02:58:56;;;;;;;3.25;1.88;;;;;;;;;;5094616;28;20024;-48
2021/06/14 03:01:22;;;;;;;3.75;1.63;;;;;;;;;;5094739;28;20055;-48
2021/06/14 03:03:49;;;;;;;4.80;2.00;;;;;;;;;;5094690;28;20031;-46
2021/06/14 03:06:16;;;;;;;5.57;1.90;;;;;;;;;;5094670;28;20028;-49
2021/06/14 03:08:43;;;;;;;4.60;2.00;;;;;;;;;;5094869;28;20517;-48
2021/06/14 03:11:09;;;;;;;2.67;1.90;;;;;;;;;;5094563;28;20103;-48
2021/06/14 03:13:35;;;;;;;6.13;1.73;;;;;;;;;;5094098;28;20110;-46
2021/06/14 03:16:02;;;;;;;4.65;2.60;;;;;;;;;;5094366;28;20020;-47
2021/06/14 03:18:28;;;;;;;5.20;2.53;;;;;;;;;;5094570;28;20058;-47
2021/06/14 03:20:55;;;;;;;4.35;1.85;;;;;;;;;;5094283;28;20016;-47
2021/06/14 03:23:22;;;;;;;2.75;1.90;;;;;;;;;;5094159;28;20485;-56
2021/06/14 03:25:48;;;;;;;4.18;1.80;;;;;;;;;;5092996;28;20054;-48
2021/06/14 03:28:15;;;;;;;3.92;1.90;;;;;;;;;;5094114;28;20091;-50
2021/06/14 03:30:42;;;;;;;3.63;2.17;;;;;;;;;;5093497;28;20051;-49
2021/06/14 03:33:09;;;;;;;3.13;1.70;;;;;;;;;;5094098;28;20026;-47
2021/06/14 03:35:36;;;;;;;5.40;1.85;;;;;;;;;;5093978;28;20402;-49
2021/06/14 03:38:02;;;;;;;4.47;2.70;;;;;;;;;;5094062;28;20013;-49
2021/06/14 03:40:29;;;;;;;3.60;2.30;;;;;;;;;;5093882;28;20024;-50
2021/06/14 03:43:02;;;;;;;4.38;1.90;;;;;;;;;;5092756;28;20124;-47
2021/06/14 03:45:28;;;;;;;3.20;1.83;;;;;;;;;;5093985;28;20036;-50
2021/06/14 03:47:55;;;;;;;4.03;1.52;;;;;;;;;;5093869;28;20023;-50
2021/06/14 03:50:21;;;;;;;2.80;1.90;;;;;;;;;;5093941;28;20032;-49
2021/06/14 03:52:47;;;;;;;3.95;1.75;;;;;;;;;;5093732;28;20024;-49
2021/06/14 03:55:13;;;;;;;3.85;1.70;;;;;;;;;;5093708;28;20151;-49
2021/06/14 03:57:40;;;;;;;5.05;2.63;;;;;;;;;;5093851;28;20059;-49
2021/06/14 04:00:08;;;;;;;17.92;8.63;;;;;;;;;;5093782;28;20024;-48
2021/06/14 04:02:34;;;;;;;16.52;7.72;;;;;;;;;;5093563;28;20468;-48
2021/06/14 04:05:00;;;;;;;9.88;5.47;;;;;;;;;;5093600;28;20032;-48
2021/06/14 04:07:26;;;;;;;8.18;3.30;;;;;;;;;;5093792;28;20027;-47
2021/06/14 04:09:54;;;;;;;7.20;4.05;;;;;;;;;;5093531;28;20468;-49
2021/06/14 04:12:20;;;;;;;7.50;3.85;;;;;;;;;;5093715;28;20030;-48
2021/06/14 04:14:46;;;;;;;7.95;3.42;;;;;;;;;;5093179;28;20116;-48
2021/06/14 04:17:12;;;;;;;9.65;4.07;;;;;;;;;;5093594;28;20073;-47
2021/06/14 04:19:38;;;;;;;5.18;2.80;;;;;;;;;;5093434;28;20034;-48
2021/06/14 04:22:05;;;;;;;7.65;3.00;;;;;;;;;;5093563;28;20026;-48
2021/06/14 04:24:31;;;;;;;7.63;2.85;;;;;;;;;;5093178;28;20044;-48
2021/06/14 04:26:57;;;;;;;6.97;2.83;;;;;;;;;;5093221;28;20047;-49
2021/06/14 04:29:23;;;;;;;3.65;2.03;;;;;;;;;;5093315;28;20460;-49
2021/06/14 04:31:49;;;;;;;4.85;2.65;;;;;;;;;;5093127;28;20054;-50
2021/06/14 04:34:16;;;;;;;6.68;2.28;;;;;;;;;;5093077;28;20118;-50
2021/06/14 04:36:42;;;;;;;4.03;1.85;;;;;;;;;;5093067;28;20464;-48
2021/06/14 04:39:09;;;;;;;2.72;1.88;;;;;;;;;;5093186;28;20024;-49
2021/06/14 04:41:35;;;;;;;2.60;1.73;;;;;;;;;;5093339;28;20113;-48
2021/06/14 04:44:04;;;;;;;3.17;2.10;;;;;;;;;;5097080;28;20044;-47
2021/06/14 04:46:30;;;;;;;5.15;1.98;;;;;;;;;;5097502;28;20024;-49
2021/06/14 04:48:56;;;;;;;6.93;1.92;;;;;;;;;;5097285;28;20028;-47
2021/06/14 04:51:22;;;;;;;3.50;1.90;;;;;;;;;;5097161;28;20065;-49
2021/06/14 04:53:48;;;;;;;1.77;1.50;;;;;;;;;;5097177;28;20376;-49
2021/06/14 04:56:14;;;;;;;4.30;1.90;;;;;;;;;;5097161;28;20028;-47
2021/06/14 04:58:40;;;;;;;3.30;1.75;;;;;;;;;;5096992;28;20063;-47
2021/06/14 05:01:06;;;;;;;3.05;2.08;;;;;;;;;;5097057;28;20028;-47
2021/06/14 05:03:32;;;;;;;5.57;2.13;;;;;;;;;;5097056;28;20020;-47
2021/06/14 05:05:58;;;;;;;3.05;1.88;;;;;;;;;;5096984;28;20028;-48
2021/06/14 05:08:24;;;;;;;5.75;3.13;;;;;;;;;;5097068;28;20065;-47
2021/06/14 05:10:51;;;;;;;4.43;1.73;;;;;;;;;;5096828;28;20095;-46
2021/06/14 05:13:17;;;;;;;3.83;1.80;;;;;;;;;;5096356;28;20504;-48
2021/06/14 05:15:43;;;;;;;6.07;2.83;;;;;;;;;;5096891;28;20038;-49
2021/06/14 05:18:10;;;;;;;8.00;4.28;;;;;;;;;;5096618;28;20032;-47
2021/06/14 05:20:36;;;;;;;9.07;6.18;;;;;;;;;;5096716;28;20465;-47
2021/06/14 05:23:03;;;;;;;8.40;4.53;;;;;;;;;;5096307;28;20031;-49
2021/06/14 05:25:30;;;;;;;11.18;5.20;;;;;;;;;;5096211;28;20089;-47
2021/06/14 05:27:58;;;;;;;10.57;5.28;;;;;;;;;;5096370;28;20030;-47
2021/06/14 05:30:25;;;;;;;6.20;2.83;;;;;;;;;;5096292;28;20514;-48
2021/06/14 05:32:51;;;;;;;6.10;3.22;;;;;;;;;;5096427;28;20023;-48
2021/06/14 05:35:20;;;;;;;8.40;3.30;;;;;;;;;;5096344;28;20035;-49
2021/06/14 05:37:48;;;;;;;15.98;8.93;;;;;;;;;;5096658;28;20499;-49
2021/06/14 05:40:15;;;;;;;7.82;4.78;;;;;;;;;;5096292;28;20429;-49
2021/06/14 05:42:41;;;;;;;15.50;7.35;;;;;;;;;;5095910;28;20028;-48
2021/06/14 05:45:08;;;;;;;8.18;4.47;;;;;;;;;;5096018;28;20028;-48
2021/06/14 05:47:34;;;;;;;28.88;16.25;;;;;;;;;;5096214;28;20024;-50
2021/06/14 05:50:02;;;;;;;12.13;6.40;;;;;;;;;;5095987;28;20062;-49
2021/06/14 05:52:29;;;;;;;17.00;10.10;;;;;;;;;;5096004;28;20028;-49
2021/06/14 05:54:55;;;;;;;19.15;10.77;;;;;;;;;;5095353;28;20020;-49
2021/06/14 05:57:21;;;;;;;16.20;8.10;;;;;;;;;;5095903;28;20028;-49
2021/06/14 05:59:47;;;;;;;12.32;5.88;;;;;;;;;;5096084;28;20016;-48
2021/06/14 06:02:13;;;;;;;5.72;3.72;;;;;;;;;;5096011;28;20020;-49
2021/06/14 06:04:39;;;;;;;8.63;3.88;;;;;;;;;;5095673;28;20035;-49
2021/06/14 06:07:05;;;;;;;8.57;4.25;;;;;;;;;;5095669;28;20095;-49
2021/06/14 06:09:31;;;;;;;7.75;3.97;;;;;;;;;;5095658;28;20039;-48
2021/06/14 06:11:57;;;;;;;6.65;2.38;;;;;;;;;;5095552;28;20103;-48
2021/06/14 06:14:23;;;;;;;6.20;3.38;;;;;;;;;;5095425;28;20052;-48
2021/06/14 06:16:50;;;;;;;12.43;5.47;;;;;;;;;;5095991;28;20104;-50
2021/06/14 06:19:16;;;;;;;18.95;10.57;;;;;;;;;;5095532;28;20099;-50
2021/06/14 06:21:42;;;;;;;16.00;9.40;;;;;;;;;;5095465;28;20028;-50
2021/06/14 06:24:08;;;;;;;17.73;10.82;;;;;;;;;;5095472;28;20016;-49
2021/06/14 06:26:35;;;;;;;19.25;12.65;;;;;;;;;;5095341;28;20036;-50
2021/06/14 06:29:02;;;;;;;8.98;5.28;;;;;;;;;;5095350;28;20028;-50
2021/06/14 06:31:28;;;;;;;8.18;4.18;;;;;;;;;;5095233;28;20027;-50
2021/06/14 06:33:54;;;;;;;7.85;3.75;;;;;;;;;;5095452;28;20028;-48
2021/06/14 06:36:20;;;;;;;14.13;8.77;;;;;;;;;;5095227;28;20020;-50
2021/06/14 06:38:46;;;;;;;14.23;7.90;;;;;;;;;;5095307;28;20035;-49
2021/06/14 06:41:12;;;;;;;17.45;8.15;;;;;;;;;;5095189;28;20503;-52
2021/06/14 06:43:38;;;;;;;39.90;19.90;;;;;;;;;;5094732;28;20040;-50
2021/06/14 06:46:05;;;;;;;15.73;8.90;;;;;;;;;;5095136;28;20094;-49
2021/06/14 06:48:32;;;;;;;17.60;9.73;;;;;;;;;;5094813;28;20411;-50
2021/06/14 06:50:59;;;;;;;21.73;10.25;;;;;;;;;;5095070;28;20031;-49
2021/06/14 06:53:26;;;;;;;43.08;21.15;;;;;;;;;;5095012;28;20504;-51
2021/06/14 06:55:52;;;;;;;27.00;15.73;;;;;;;;;;5094782;28;20050;-51
2021/06/14 06:58:18;;;;;;;30.70;14.57;;;;;;;;;;5094662;28;20028;-50
2021/06/14 07:00:47;;;;;;;23.63;12.38;;;;;;;;;;5094946;28;20027;-50
2021/06/14 07:03:16;;;;;;;17.17;8.07;;;;;;;;;;5094840;28;20034;-49
2021/06/14 07:05:46;;;;;;;12.50;6.20;;;;;;;;;;5093620;28;20032;-49
2021/06/14 07:08:12;;;;;;;9.90;5.80;;;;;;;;;;5094562;28;20020;-50
2021/06/14 07:10:38;;;;;;;20.20;10.57;;;;;;;;;;5094581;28;20051;-50
2021/06/14 07:13:04;;;;;;;15.57;8.70;;;;;;;;;;5094212;28;20074;-50
2021/06/14 07:15:31;;;;;;;29.92;14.10;;;;;;;;;;5094652;28;20090;-49
2021/06/14 07:17:57;;;;;;;12.23;6.88;;;;;;;;;;5083017;28;20443;-49
2021/06/14 07:20:23;;;;;;;4.50;2.40;;;;;;;;;;5072734;28;20017;-51
2021/06/14 07:22:50;;;;;;;5.80;2.90;;;;;;;;;;5069921;28;20036;-50
2021/06/14 07:25:16;;;;;;;15.00;8.30;;;;;;;;;;5072480;28;20029;-45
2021/06/14 07:27:43;;;;;;;11.73;7.43;;;;;;;;;;5072298;28;20032;-50
2021/06/14 07:30:11;;;;;;;28.40;17.38;;;;;;;;;;5072236;28;20358;-50
2021/06/14 07:32:37;;;;;;;42.38;23.85;;;;;;;;;;5072360;28;20025;-50
2021/06/14 07:35:04;;;;;;;51.03;28.27;;;;;;;;;;5072172;28;20073;-48
2021/06/14 07:37:30;;;;;;;30.58;19.13;;;;;;;;;;5071946;28;20016;-50
2021/06/14 07:39:56;;;;;;;32.33;17.92;;;;;;;;;;5072115;28;20043;-48
2021/06/14 07:42:22;;;;;;;32.90;19.40;;;;;;;;;;5071643;28;20020;-49
2021/06/14 07:44:48;;;;;;;33.88;21.40;;;;;;;;;;5071645;28;20029;-49
2021/06/14 07:47:15;;;;;;;18.55;10.73;;;;;;;;;;5071649;28;20017;-48
2021/06/14 07:49:42;;;;;;;43.50;22.90;;;;;;;;;;5071497;28;20054;-49
2021/06/14 07:52:08;;;;;;;101.82;58.47;;;;;;;;;;5071944;28;20062;-50
2021/06/14 07:54:35;;;;;;;29.42;18.00;;;;;;;;;;5071932;28;20031;-51
2021/06/14 07:57:01;;;;;;;14.65;7.97;;;;;;;;;;5072786;28;20027;-50
2021/06/14 07:59:27;;;;;;;26.20;16.55;;;;;;;;;;5073407;28;20029;-51
2021/06/14 08:01:53;;;;;;;5.18;2.75;;;;;;;;;;5072276;28;20055;-47
2021/06/14 08:04:19;;;;;;;9.93;4.68;;;;;;;;;;5070322;28;20032;-49
2021/06/14 08:06:46;;;;;;;16.52;8.20;;;;;;;;;;5071729;28;20111;-52
2021/06/14 08:09:15;;;;;;;35.67;12.32;;;;;;;;;;5072886;28;20025;-52
2021/06/14 08:11:45;;;;;;;32.25;12.25;;;;;;;;;;5072843;28;20025;-52
2021/06/14 08:14:11;;;;;;;21.33;10.37;;;;;;;;;;5073047;28;20064;-51
2021/06/14 08:16:43;;;;;;;18.83;10.10;;;;;;;;;;5073254;28;20027;-49
2021/06/14 08:19:17;;;;;;;14.68;6.60;;;;;;;;;;5073402;28;20040;-50
2021/06/14 08:27:09;;;;;;;7.57;3.88;;;;;;;;;;5073434;28;20070;-50
2021/06/14 08:29:35;;;;;;;10.80;4.65;;;;;;;;;;5073317;28;20036;-51
2021/06/14 08:32:02;;;;;;;9.07;2.92;;;;;;;;;;5073267;28;20028;-50
2021/06/14 08:34:30;;;;;;;7.78;3.25;;;;;;;;;;5073014;28;20465;-51
2021/06/14 08:36:56;;;;;;;28.90;13.02;;;;;;;;;;5072921;28;20035;-51
2021/06/14 08:39:22;;;;;;;24.83;13.98;;;;;;;;;;5073079;28;20024;-52
2021/06/14 08:41:50;;;;;;;23.50;13.48;;;;;;;;;;5073086;28;20055;-52
2021/06/14 08:44:17;;;;;;;21.23;11.70;;;;;;;;;;5073187;28;20601;-50
2021/06/14 08:46:43;;;;;;;8.75;5.53;;;;;;;;;;5073137;28;20484;-51
2021/06/14 08:49:10;;;;;;;6.15;3.00;;;;;;;;;;5073135;28;20025;-51
2021/06/14 08:51:37;;;;;;;2.63;1.88;;;;;;;;;;5072968;28;20043;-50
2021/06/14 08:54:05;;;;;;;3.78;1.92;;;;;;;;;;5073127;28;20040;-51
2021/06/14 08:56:32;;;;;;;2.30;1.58;;;;;;;;;;5073277;28;20458;-52
2021/06/14 08:58:58;;;;;;;6.18;3.28;;;;;;;;;;5072934;28;20056;-52
2021/06/14 09:01:25;;;;;;;23.80;10.15;;;;;;;;;;5073013;28;20032;-52
2021/06/14 09:03:51;;;;;;;21.10;11.75;;;;;;;;;;5072834;28;20024;-51
2021/06/14 09:06:17;;;;;;;23.25;11.93;;;;;;;;;;5072784;28;20051;-48
2021/06/14 09:08:54;;;;;;;9.13;5.60;;;;;;;;;;5072670;28;20031;-51
2021/06/14 09:11:20;;;;;;;4.13;2.50;;;;;;;;;;5072849;28;20016;-51
2021/06/14 09:13:46;;;;;;;4.95;3.25;;;;;;;;;;5072748;28;20492;-51
2021/06/14 09:16:14;;;;;;;19.50;10.23;;;;;;;;;;5072967;28;20051;-51
2021/06/14 09:18:42;;;;;;;41.88;21.38;;;;;;;;;;5072720;28;20025;-51
2021/06/14 09:21:13;;;;;;;11.95;6.40;;;;;;;;;;5072648;28;20021;-52
2021/06/14 09:23:51;;;;;;;17.00;8.32;;;;;;;;;;5071382;28;20024;-51
2021/06/14 09:26:49;;;;;;;8.75;4.45;;;;;;;;;;5072571;28;20037;-51
2021/06/14 09:29:19;;;;;;;7.32;2.65;;;;;;;;;;5051974;28;20142;-48
2021/06/14 09:31:50;;;;;;;3.27;1.90;;;;;;;;;;5054087;28;20536;-50
2021/06/14 09:34:17;;;;;;;4.95;2.58;;;;;;;;;;5054033;28;20028;-52
2021/06/14 09:36:47;;;;;;;8.82;4.28;;;;;;;;;;5054026;28;20370;-52
2021/06/14 09:39:16;;;;;;;29.58;11.73;;;;;;;;;;5053972;28;20440;-52
2021/06/14 09:41:50;;;;;;;14.85;6.72;;;;;;;;;;5053832;28;20063;-52
2021/06/14 09:44:27;;;;;;;14.45;7.72;;;;;;;;;;5053496;28;20136;-48
2021/06/14 09:47:04;;;;;;;8.65;3.95;;;;;;;;;;5054051;28;20033;-52
2021/06/14 09:49:30;;;;;;;4.82;2.10;;;;;;;;;;5053945;28;20488;-53
2021/06/14 09:51:57;;;;;;;3.60;2.00;;;;;;;;;;5053789;28;20079;-51
2021/06/14 09:54:29;;;;;;;4.13;2.80;;;;;;;;;;5053704;28;20100;-52
2021/06/14 09:56:56;;;;;;;8.90;5.38;;;;;;;;;;5053796;28;20094;-52
2021/06/14 09:59:29;;;;;;;5.75;3.67;;;;;;;;;;5053301;28;20064;-52
2021/06/14 10:02:17;;;;;;;17.33;9.30;;;;;;;;;;5053700;28;20029;-52
2021/06/14 10:05:01;;;;;;;2.90;2.30;;;;;;;;;;5063899;28;20040;-50
2021/06/14 10:07:28;;;;;;;17.60;5.55;;;;;;;;;;5075384;28;20027;-50
2021/06/14 10:09:54;;;;;;;11.80;6.35;;;;;;;;;;5074105;28;20499;-55
2021/06/14 10:12:20;;;;;;;7.68;3.53;;;;;;;;;;5075260;28;20040;-49
2021/06/14 10:14:54;;;;;;;3.33;1.67;;;;;;;;;;5074871;28;20063;-50
2021/06/14 10:17:32;;;;;;;2.15;1.35;;;;;;;;;;5075017;28;20053;-50
2021/06/14 10:20:22;;;;;;;3.03;1.63;;;;;;;;;;5074976;28;20104;-51
2021/06/14 10:22:49;;;;;;;2.65;1.40;;;;;;;;;;5074895;28;20025;-51
2021/06/14 10:25:16;;;;;;;6.30;2.00;;;;;;;;;;5074755;28;20035;-50
2021/06/14 10:27:42;;;;;;;2.22;1.42;;;;;;;;;;5075315;28;20071;-51
2021/06/14 10:30:10;;;;;;;2.55;1.50;;;;;;;;;;5074849;28;20032;-48
2021/06/14 10:32:37;;;;;;;2.08;1.20;;;;;;;;;;5074716;28;20406;-50
2021/06/14 10:35:04;;;;;;;1.25;1.10;;;;;;;;;;5074839;28;20120;-50
2021/06/14 10:37:31;;;;;;;2.25;1.00;;;;;;;;;;5074557;28;20492;-47
2021/06/14 10:39:58;;;;;;;5.22;1.30;;;;;;;;;;5074563;28;20024;-49
2021/06/14 10:42:24;;;;;;;1.83;1.40;;;;;;;;;;5074461;28;20020;-49
2021/06/14 10:44:50;;;;;;;2.53;0.90;;;;;;;;;;5073442;28;20401;-48
2021/06/14 10:47:16;;;;;;;1.92;1.20;;;;;;;;;;5074451;28;20461;-48
2021/06/14 10:49:43;;;;;;;3.22;1.00;;;;;;;;;;5074459;28;20028;-51
2021/06/14 10:52:09;;;;;;;3.00;1.40;;;;;;;;;;5074508;28;20487;-49
2021/06/14 10:54:39;;;;;;;2.13;1.40;;;;;;;;;;5074374;28;20032;-48
2021/06/14 10:57:07;;;;;;;1.05;0.95;;;;;;;;;;5074465;28;20020;-50
2021/06/14 10:59:41;;;;;;;3.33;1.05;;;;;;;;;;5074367;28;20119;-49
2021/06/14 11:02:07;;;;;;;1.90;1.20;;;;;;;;;;5074343;28;20024;-50
2021/06/14 11:04:34;;;;;;;1.95;1.27;;;;;;;;;;5074329;28;20402;-48
2021/06/14 11:07:00;;;;;;;5.53;1.38;;;;;;;;;;5074147;28;20469;-51
2021/06/14 11:09:39;;;;;;;4.40;1.40;;;;;;;;;;5073680;28;20465;-47
2021/06/14 11:12:07;;;;;;;3.97;2.60;;;;;;;;;;5073926;28;20021;-50
2021/06/14 11:14:34;;;;;;;3.83;2.47;;;;;;;;;;5073757;28;20079;-50
2021/06/14 11:17:19;;;;;;;7.07;2.40;;;;;;;;;;5074080;28;20020;-50
2021/06/14 11:19:49;;;;;;;3.63;1.80;;;;;;;;;;5074066;28;20024;-50
2021/06/14 11:22:17;;;;;;;4.20;2.45;;;;;;;;;;5073757;28;20096;-51
2021/06/14 11:24:43;;;;;;;1.60;1.00;;;;;;;;;;5073603;28;20039;-50
2021/06/14 11:27:10;;;;;;;3.22;1.00;;;;;;;;;;5073530;28;20016;-50
2021/06/14 11:29:42;;;;;;;1.10;0.65;;;;;;;;;;5073794;28;20025;-48
2021/06/14 11:32:08;;;;;;;1.85;1.15;;;;;;;;;;5073725;28;20104;-50
2021/06/14 11:34:41;;;;;;;1.27;0.70;;;;;;;;;;5073544;28;20028;-49
2021/06/14 11:37:08;;;;;;;2.85;1.10;;;;;;;;;;5073750;28;20461;-49
2021/06/14 11:39:34;;;;;;;1.33;1.00;;;;;;;;;;5073298;28;20020;-50
2021/06/14 11:42:08;;;;;;;1.67;1.00;;;;;;;;;;5073598;28;20024;-50
2021/06/14 11:44:34;;;;;;;2.05;0.77;;;;;;;;;;5073611;28;20037;-50
2021/06/14 11:47:00;;;;;;;1.45;1.00;;;;;;;;;;5073388;28;20032;-50
2021/06/14 11:49:34;;;;;;;7.57;3.83;;;;;;;;;;5073529;28;20020;-50
2021/06/14 11:52:01;;;;;;;1.48;0.93;;;;;;;;;;5072897;28;20024;-50
2021/06/14 11:54:27;;;;;;;1.42;1.05;;;;;;;;;;5073193;28;20028;-50
2021/06/14 11:56:59;;;;;;;2.78;1.20;;;;;;;;;;5073228;28;20098;-48
2021/06/14 11:59:32;;;;;;;1.73;1.30;;;;;;;;;;5073145;28;20506;-49
2021/06/14 12:01:58;;;;;;;2.13;1.38;;;;;;;;;;5073520;28;20024;-49
2021/06/14 12:04:24;;;;;;;2.88;1.10;;;;;;;;;;5073159;28;20036;-49
2021/06/14 12:06:52;;;;;;;2.15;1.13;;;;;;;;;;5073014;28;20044;-50
2021/06/14 12:09:21;;;;;;;2.10;1.30;;;;;;;;;;5073119;28;20017;-50
2021/06/14 12:11:55;;;;;;;3.95;1.15;;;;;;;;;;5073396;28;20360;-50
2021/06/14 12:14:21;;;;;;;3.05;1.17;;;;;;;;;;5073000;28;20110;-50
2021/06/14 12:16:55;;;;;;;3.88;1.40;;;;;;;;;;5073128;28;20063;-50
2021/06/14 12:19:21;;;;;;;7.18;1.27;;;;;;;;;;5072958;28;20040;-47
2021/06/14 12:21:51;;;;;;;3.17;1.02;;;;;;;;;;5072991;28;20025;-51
2021/06/14 12:24:18;;;;;;;1.70;0.90;;;;;;;;;;5072810;28;20119;-49
2021/06/14 12:26:44;;;;;;;2.72;0.90;;;;;;;;;;5073059;28;20051;-51
2021/06/14 12:29:20;;;;;;;2.03;1.10;;;;;;;;;;5073033;28;20097;-50
2021/06/14 12:31:46;;;;;;;1.60;0.95;;;;;;;;;;5073115;28;20032;-51
2021/06/14 12:34:12;;;;;;;2.58;0.90;;;;;;;;;;5072702;28;20032;-50
2021/06/14 12:36:39;;;;;;;1.65;1.10;;;;;;;;;;5073330;28;20021;-49
2021/06/14 12:39:05;;;;;;;2.03;1.38;;;;;;;;;;5072610;28;20070;-50
2021/06/14 12:41:31;;;;;;;1.85;1.40;;;;;;;;;;5071596;28;20083;-50
2021/06/14 12:43:59;;;;;;;1.83;1.10;;;;;;;;;;5071816;28;20032;-49
2021/06/14 12:46:32;;;;;;;4.95;3.60;;;;;;;;;;5070769;28;20486;-50
2021/06/14 12:48:59;;;;;;;11.77;8.05;;;;;;;;;;5069476;28;20017;-48
2021/06/14 12:51:35;;;;;;;105.93;62.72;;;;;;;;;;5071393;28;20333;-50
2021/06/14 12:54:01;;;;;;;27.08;16.73;;;;;;;;;;5072127;28;20100;-53
2021/06/14 12:56:28;;;;;;;40.80;27.90;;;;;;;;;;5071275;28;20028;-50
2021/06/14 12:58:54;;;;;;;51.92;31.35;;;;;;;;;;5070757;28;20048;-51
2021/06/14 13:01:21;;;;;;;68.97;43.80;;;;;;;;;;5072195;28;20024;-51
2021/06/14 13:03:48;;;;;;;68.03;38.72;;;;;;;;;;5072364;28;20400;-52
2021/06/14 13:06:14;;;;;;;21.85;15.10;;;;;;;;;;5075702;28;20094;-52
2021/06/14 13:08:44;;;;;;;9.10;6.07;;;;;;;;;;5075323;28;20615;-53
2021/06/14 13:11:10;;;;;;;4.80;2.88;;;;;;;;;;5074980;28;20603;-53
2021/06/14 13:13:39;;;;;;;5.50;2.83;;;;;;;;;;5075132;28;20048;-46
2021/06/14 13:16:06;;;;;;;9.50;6.85;;;;;;;;;;5073848;28;20017;-53
2021/06/14 13:18:33;;;;;;;128.13;70.82;;;;;;;;;;5074187;28;20021;-56
2021/06/14 13:21:05;;;;;;;43.70;29.60;;;;;;;;;;5072563;28;20112;-52
2021/06/14 13:23:31;;;;;;;35.40;23.23;;;;;;;;;;5074207;28;20397;-52
2021/06/14 13:25:58;;;;;;;15.20;9.75;;;;;;;;;;5075026;28;20050;-52
2021/06/14 13:28:28;;;;;;;9.93;5.55;;;;;;;;;;5075383;28;20376;-52
2021/06/14 13:30:54;;;;;;;54.67;32.55;;;;;;;;;;5088369;28;20104;-54
2021/06/14 13:33:42;;;;;;;37.85;22.73;;;;;;;;;;5096126;28;20016;-54
2021/06/14 13:36:09;;;;;;;53.72;34.95;;;;;;;;;;5095946;28;20096;-52
2021/06/14 13:38:35;;;;;;;29.45;18.05;;;;;;;;;;5095834;28;20024;-50
2021/06/14 13:41:01;;;;;;;9.88;6.45;;;;;;;;;;5095872;28;20028;-50
2021/06/14 13:43:29;;;;;;;6.10;4.15;;;;;;;;;;5095593;28;20028;-52
2021/06/14 13:45:55;;;;;;;9.07;4.68;;;;;;;;;;5075520;28;20078;-51
2021/06/14 13:48:22;;;;;;;7.20;4.55;;;;;;;;;;5074659;28;20031;-48
2021/06/14 13:50:50;;;;;;;6.32;3.50;;;;;;;;;;5074062;28;20027;-55
2021/06/14 13:53:23;;;;;;;6.45;3.00;;;;;;;;;;5074178;28;20025;-52
2021/06/14 13:55:49;;;;;;;13.27;6.60;;;;;;;;;;5074068;28;20028;-44
2021/06/14 13:58:15;;;;;;;24.60;13.48;;;;;;;;;;5073125;28;20028;-49
2021/06/14 14:00:42;;;;;;;62.28;35.50;;;;;;;;;;5071059;28;20024;-52
2021/06/14 14:03:08;;;;;;;35.50;21.45;;;;;;;;;;5074565;28;20063;-50
2021/06/14 14:05:35;;;;;;;46.72;29.42;;;;;;;;;;5074889;28;20038;-54
2021/06/14 14:08:02;;;;;;;21.58;12.57;;;;;;;;;;5074908;28;20016;-54
2021/06/14 14:10:29;;;;;;;34.15;20.02;;;;;;;;;;5074679;28;20028;-53
2021/06/14 14:12:55;;;;;;;63.45;40.13;;;;;;;;;;5074328;28;20547;-52
2021/06/14 14:15:22;;;;;;;71.03;44.53;;;;;;;;;;5074324;28;20041;-54
2021/06/14 14:17:49;;;;;;;22.45;13.85;;;;;;;;;;5074459;28;20417;-54
2021/06/14 14:20:20;;;;;;;17.30;11.32;;;;;;;;;;5074556;28;20433;-47
2021/06/14 14:22:46;;;;;;;45.83;29.73;;;;;;;;;;5074785;28;20071;-52
2021/06/14 14:25:12;;;;;;;30.95;18.20;;;;;;;;;;5074582;28;20029;-51
2021/06/14 14:27:38;;;;;;;11.90;7.80;;;;;;;;;;5075381;28;20063;-53
2021/06/14 14:30:08;;;;;;;34.75;19.88;;;;;;;;;;5082217;28;20460;-47
2021/06/14 14:32:35;;;;;;;24.45;15.93;;;;;;;;;;5080867;28;20012;-46
2021/06/14 14:35:04;;;;;;;20.23;12.75;;;;;;;;;;5073999;28;20025;-51
2021/06/14 14:37:30;;;;;;;20.70;12.48;;;;;;;;;;5074618;28;20023;-50
2021/06/14 14:40:02;;;;;;;26.90;15.50;;;;;;;;;;5074474;28;20107;-55
2021/06/14 14:42:28;;;;;;;16.40;9.95;;;;;;;;;;5077029;28;20035;-52